Time;durP1;ratioP1;P1;durP2;ratioP2;P2;SDS_P1;SDS_P2;PMS_P1;PMS_P2;Temp;Humidity;BMP_temperature;BMP_pressure;BME280_temperature;BME280_humidity;BME280_pressure;Samples;Min_cycle;Max_cycle;Signal;HPM_P1;HPM_P2
2021/12/19 00:00:23;;;;;;;8.32;3.30;;;7.70;99.90;;;;;;5039468;28;20198;-74
2021/12/19 00:03:31;;;;;;;9.75;4.45;;;7.70;99.90;;;;;;5039950;28;20212;-74
2021/12/19 00:08:49;;;;;;;6.32;2.83;;;7.80;99.90;;;;;;5040555;28;20223;-75
2021/12/19 00:11:19;;;;;;;8.73;3.30;;;7.80;99.90;;;;;;5040354;28;20876;-75
2021/12/19 00:13:48;;;;;;;7.25;3.10;;;7.80;99.90;;;;;;5040917;28;20206;-76
2021/12/19 00:16:16;;;;;;;9.55;3.45;;;7.70;99.90;;;;;;5040241;28;20222;-77
2021/12/19 00:18:46;;;;;;;9.23;3.45;;;7.70;99.90;;;;;;5042015;28;20288;-75
2021/12/19 00:21:15;;;;;;;7.38;3.25;;;7.70;99.90;;;;;;5061888;28;20201;-74
2021/12/19 00:23:45;;;;;;;9.52;3.70;;;7.70;99.90;;;;;;5056845;28;20404;-75
2021/12/19 00:26:15;;;;;;;9.63;3.90;;;7.80;99.90;;;;;;5039635;28;20228;-75
2021/12/19 00:28:43;;;;;;;9.77;3.80;;;7.70;99.90;;;;;;5042353;28;20216;-75
2021/12/19 00:31:12;;;;;;;6.22;3.25;;;7.70;99.90;;;;;;5038534;28;20235;-75
2021/12/19 00:33:41;;;;;;;13.27;4.07;;;7.70;99.90;;;;;;5038525;28;20697;-74
2021/12/19 00:36:09;;;;;;;12.90;4.28;;;7.70;99.90;;;;;;5037855;28;20240;-75
2021/12/19 00:38:39;;;;;;;8.40;5.05;;;7.70;99.90;;;;;;5039331;28;20231;-75
2021/12/19 00:41:07;;;;;;;8.95;3.90;;;7.70;99.90;;;;;;5039008;28;20859;-75
2021/12/19 00:43:37;;;;;;;10.15;5.72;;;7.60;99.90;;;;;;5038681;28;20357;-75
2021/12/19 00:46:07;;;;;;;10.43;3.75;;;7.60;99.90;;;;;;5039179;28;20232;-75
2021/12/19 00:48:37;;;;;;;11.07;3.85;;;7.60;99.90;;;;;;5038992;28;20285;-75
2021/12/19 00:51:07;;;;;;;9.55;3.72;;;7.70;99.90;;;;;;5039004;28;20202;-75
2021/12/19 00:53:35;;;;;;;9.23;4.05;;;7.70;99.90;;;;;;5039089;28;20194;-75
2021/12/19 00:56:05;;;;;;;7.22;4.15;;;7.70;99.90;;;;;;5038693;28;20913;-75
2021/12/19 00:58:33;;;;;;;12.48;4.60;;;7.70;99.90;;;;;;5038846;28;20232;-75
2021/12/19 01:01:02;;;;;;;10.88;4.25;;;7.70;99.90;;;;;;5038337;28;20772;-74
2021/12/19 01:03:30;;;;;;;8.55;4.40;;;7.70;99.90;;;;;;5038836;28;20281;-75
2021/12/19 01:05:57;;;;;;;10.20;5.45;;;7.70;99.90;;;;;;5038746;28;20245;-73
2021/12/19 01:08:25;;;;;;;14.60;4.97;;;7.70;99.90;;;;;;5038930;28;20190;-73
2021/12/19 01:10:54;;;;;;;16.50;5.88;;;7.70;99.90;;;;;;5037885;28;20722;-73
2021/12/19 01:13:24;;;;;;;15.32;6.07;;;7.80;99.90;;;;;;5038479;28;20305;-74
2021/12/19 01:15:53;;;;;;;11.02;4.53;;;7.80;99.90;;;;;;5037707;28;20263;-74
2021/12/19 01:18:21;;;;;;;14.73;6.05;;;7.80;99.90;;;;;;5039043;28;20204;-73
2021/12/19 01:20:50;;;;;;;9.70;5.70;;;7.80;99.90;;;;;;5038319;28;20196;-73
2021/12/19 01:23:17;;;;;;;19.23;6.15;;;7.80;99.90;;;;;;5039098;28;20194;-72
2021/12/19 01:25:47;;;;;;;8.93;4.80;;;7.80;99.90;;;;;;5038535;28;20217;-72
2021/12/19 01:28:15;;;;;;;10.13;5.45;;;7.80;99.90;;;;;;5038465;28;20202;-72
2021/12/19 01:30:46;;;;;;;17.27;7.03;;;7.80;99.90;;;;;;5038263;28;20201;-72
2021/12/19 01:33:14;;;;;;;16.08;6.40;;;7.80;99.90;;;;;;5038434;28;20226;-72
2021/12/19 01:35:42;;;;;;;15.85;5.20;;;7.80;99.90;;;;;;5038356;28;20228;-68
2021/12/19 01:38:10;;;;;;;12.20;5.50;;;7.80;99.90;;;;;;5037908;28;20201;-68
2021/12/19 01:40:38;;;;;;;17.08;5.38;;;7.90;99.90;;;;;;5038002;28;20880;-76
2021/12/19 01:43:05;;;;;;;18.17;5.70;;;7.80;99.90;;;;;;5037845;28;20200;-72
2021/12/19 01:45:39;;;;;;;11.55;5.38;;;7.80;99.90;;;;;;5037711;28;20217;-73
2021/12/19 01:48:11;;;;;;;13.20;5.60;;;7.80;99.90;;;;;;5038105;28;20202;-72
2021/12/19 01:50:40;;;;;;;10.38;5.10;;;7.80;99.90;;;;;;5037764;28;20197;-72
2021/12/19 01:53:11;;;;;;;12.05;5.60;;;7.80;99.90;;;;;;5037376;28;20224;-74
2021/12/19 01:55:40;;;;;;;13.40;6.00;;;7.80;99.90;;;;;;5037699;28;20695;-73
2021/12/19 01:58:09;;;;;;;7.63;5.57;;;7.80;99.90;;;;;;5037776;28;20296;-74
2021/12/19 02:00:40;;;;;;;13.85;5.65;;;7.80;99.90;;;;;;5037373;28;20201;-74
2021/12/19 02:03:11;;;;;;;13.95;5.60;;;7.80;99.90;;;;;;5037964;28;20202;-73
2021/12/19 02:05:40;;;;;;;7.30;4.18;;;7.90;99.90;;;;;;5037590;28;20671;-71
2021/12/19 02:08:10;;;;;;;16.13;6.10;;;7.90;99.90;;;;;;5037501;28;20822;-74
2021/12/19 02:10:39;;;;;;;14.25;5.38;;;7.90;99.90;;;;;;5018050;28;20198;-73
2021/12/19 02:13:09;;;;;;;11.43;5.95;;;7.90;99.90;;;;;;5020669;28;20860;-73
2021/12/19 02:15:38;;;;;;;11.63;5.20;;;7.90;99.90;;;;;;5037435;28;20229;-73
2021/12/19 02:18:12;;;;;;;10.93;5.05;;;7.80;99.90;;;;;;5037981;28;20206;-72
2021/12/19 02:20:43;;;;;;;17.83;4.65;;;7.80;99.90;;;;;;5037744;28;20202;-73
2021/12/19 02:23:12;;;;;;;16.20;6.10;;;7.90;99.90;;;;;;5040553;28;20843;-73
2021/12/19 02:25:40;;;;;;;17.77;4.80;;;7.90;99.90;;;;;;5041322;28;20227;-74
2021/12/19 02:28:09;;;;;;;15.07;6.10;;;7.80;99.90;;;;;;5041860;28;20692;-75
2021/12/19 02:30:38;;;;;;;15.82;5.22;;;7.80;99.90;;;;;;5041736;28;20204;-76
2021/12/19 02:33:10;;;;;;;9.73;4.70;;;7.90;99.90;;;;;;5041334;28;20871;-74
2021/12/19 02:35:39;;;;;;;11.95;5.60;;;7.80;99.90;;;;;;5041300;28;20832;-74
2021/12/19 02:38:36;;;;;;;19.40;6.45;;;7.80;99.90;;;;;;5041550;28;20232;-73
2021/12/19 02:49:27;;;;;;;7.95;4.50;;;7.60;99.90;;;;;;5029738;28;20205;-74
2021/12/19 02:51:55;;;;;;;18.75;5.00;;;7.60;99.90;;;;;;5042555;28;20789;-73
2021/12/19 02:54:28;;;;;;;11.52;6.25;;;7.60;99.90;;;;;;5044877;28;20217;-73
2021/12/19 02:56:57;;;;;;;15.40;5.40;;;7.60;99.90;;;;;;5061402;28;20296;-73
2021/12/19 02:59:25;;;;;;;10.02;5.15;;;7.60;99.90;;;;;;5047471;28;20292;-72
2021/12/19 03:01:52;;;;;;;11.77;4.55;;;7.70;99.90;;;;;;5041054;28;20210;-73
2021/12/19 03:04:22;;;;;;;17.80;5.00;;;7.60;99.90;;;;;;5040653;28;20204;-73
2021/12/19 03:06:50;;;;;;;8.88;4.20;;;7.60;99.90;;;;;;5041098;28;20225;-72
2021/12/19 03:09:35;;;;;;;15.80;4.30;;;7.60;99.90;;;;;;5040943;28;20201;-72
2021/12/19 03:12:12;;;;;;;8.95;5.07;;;7.60;99.90;;;;;;5041096;28;20211;-74
2021/12/19 03:20:14;;;;;;;9.05;4.80;;;7.60;99.90;;;;;;5040448;28;20236;-72
2021/12/19 03:22:42;;;;;;;11.18;4.00;;;7.70;99.90;;;;;;5040999;28;20210;-72
2021/12/19 03:25:10;;;;;;;9.65;4.40;;;7.60;99.90;;;;;;5039848;28;20862;-72
2021/12/19 03:27:40;;;;;;;12.23;3.92;;;7.70;99.90;;;;;;5040806;28;20392;-71
2021/12/19 03:30:08;;;;;;;10.27;4.53;;;7.70;99.90;;;;;;5040044;28;20261;-71
2021/12/19 03:32:36;;;;;;;9.00;4.32;;;7.70;99.90;;;;;;5040423;28;20786;-70
2021/12/19 03:35:05;;;;;;;5.93;3.63;;;7.70;99.90;;;;;;5039018;28;20219;-71
2021/12/19 03:37:37;;;;;;;6.43;3.20;;;7.70;99.90;;;;;;5040798;28;20206;-71
2021/12/19 03:40:11;;;;;;;5.47;2.40;;;7.70;99.90;;;;;;5040080;28;20204;-73
2021/12/19 03:42:43;;;;;;;4.05;2.30;;;7.60;99.90;;;;;;5039888;28;20200;-72
2021/12/19 03:45:14;;;;;;;8.38;2.20;;;7.60;99.90;;;;;;5040021;28;20218;-72
2021/12/19 03:47:42;;;;;;;2.67;1.70;;;7.60;99.90;;;;;;5040484;28;20197;-73
2021/12/19 03:50:15;;;;;;;3.05;2.20;;;7.60;99.90;;;;;;5040061;28;20221;-72
2021/12/19 03:52:43;;;;;;;9.27;1.90;;;7.60;99.90;;;;;;5039850;28;20288;-72
2021/12/19 03:55:11;;;;;;;4.88;1.80;;;7.60;99.90;;;;;;5039278;28;20213;-72
2021/12/19 03:57:40;;;;;;;1.65;1.55;;;7.50;99.90;;;;;;5040007;28;20648;-72
2021/12/19 04:00:14;;;;;;;5.20;1.98;;;7.50;99.90;;;;;;5039043;28;20727;-73
2021/12/19 04:02:41;;;;;;;0.98;0.90;;;7.50;99.90;;;;;;5039346;28;20799;-72
2021/12/19 04:05:09;;;;;;;2.42;0.90;;;7.40;99.90;;;;;;5039481;28;20304;-72
2021/12/19 04:07:37;;;;;;;1.90;1.20;;;7.40;99.90;;;;;;5039764;28;20717;-72
2021/12/19 04:10:06;;;;;;;2.75;1.23;;;7.40;99.90;;;;;;5019834;28;20205;-73
2021/12/19 04:12:34;;;;;;;2.55;1.30;;;7.30;99.90;;;;;;5027112;28;20202;-71
2021/12/19 04:15:04;;;;;;;2.30;1.25;;;7.30;99.90;;;;;;5039639;28;20230;-71
2021/12/19 04:17:33;;;;;;;3.90;1.48;;;7.30;99.90;;;;;;5039736;28;20284;-71
2021/12/19 04:20:00;;;;;;;5.30;0.82;;;7.20;99.90;;;;;;5039209;28;20216;-72
2021/12/19 04:22:28;;;;;;;1.80;1.10;;;7.20;99.90;;;;;;5039327;28;20293;-72
2021/12/19 04:24:56;;;;;;;7.50;1.20;;;7.20;99.90;;;;;;5019340;28;20722;-71
2021/12/19 04:27:24;;;;;;;6.38;2.50;;;7.10;99.90;;;;;;5019573;28;20934;-72
2021/12/19 04:29:53;;;;;;;1.88;1.77;;;7.20;99.90;;;;;;5019271;28;20416;-72
2021/12/19 04:32:26;;;;;;;2.75;1.77;;;7.20;99.90;;;;;;5031088;28;20285;-72
2021/12/19 04:34:54;;;;;;;8.40;2.30;;;7.20;99.90;;;;;;5045148;28;20535;-73
2021/12/19 04:37:46;;;;;;;2.45;2.03;;;7.10;99.90;;;;;;5041803;28;20190;-74
2021/12/19 04:40:15;;;;;;;3.67;2.33;;;7.10;99.90;;;;;;5039312;28;20244;-73
2021/12/19 04:43:49;;;;;;;9.45;2.45;;;7.10;99.90;;;;;;5039742;28;20205;-73
2021/12/19 04:51:43;;;;;;;5.93;2.40;;;7.10;99.90;;;;;;5038516;28;20212;-72
2021/12/19 04:54:24;;;;;;;8.80;3.30;;;7.10;99.90;;;;;;5038427;28;20224;-73
2021/12/19 04:57:09;;;;;;;3.70;2.33;;;7.10;99.90;;;;;;5038543;28;20204;-73
2021/12/19 04:59:54;;;;;;;2.45;1.80;;;7.10;99.90;;;;;;5038480;28;20280;-74
2021/12/19 05:02:40;;;;;;;5.93;1.67;;;7.10;99.90;;;;;;5038815;28;20829;-73
2021/12/19 05:16:16;;;;;;;6.03;2.35;;;7.10;99.90;;;;;;5038279;28;20300;-75
2021/12/19 05:18:45;;;;;;;4.40;1.98;;;7.10;99.90;;;;;;5038750;28;20209;-75
2021/12/19 05:21:18;;;;;;;6.45;2.33;;;7.10;99.90;;;;;;5038062;28;20882;-74
2021/12/19 05:24:20;;;;;;;5.53;2.75;;;7.20;99.90;;;;;;5038543;28;20210;-74
2021/12/19 05:26:48;;;;;;;7.22;3.15;;;7.20;99.90;;;;;;5038652;28;20207;-73
2021/12/19 05:29:16;;;;;;;3.28;2.70;;;7.20;99.90;;;;;;5053954;28;20197;-74
2021/12/19 05:31:44;;;;;;;8.23;3.67;;;7.30;99.90;;;;;;5060161;28;20193;-72
2021/12/19 05:34:12;;;;;;;6.88;2.50;;;7.30;99.90;;;;;;5037774;28;20217;-72
2021/12/19 05:45:14;;;;;;;6.45;3.10;;;7.40;99.90;;;;;;5018297;28;20217;-75
2021/12/19 05:47:43;;;;;;;12.55;2.25;;;7.50;99.90;;;;;;5019159;28;20206;-73
2021/12/19 05:50:11;;;;;;;5.45;2.42;;;7.50;99.90;;;;;;5037774;28;20197;-67
2021/12/19 05:52:41;;;;;;;3.97;2.50;;;7.50;99.90;;;;;;5037544;28;20797;-73
2021/12/19 05:55:10;;;;;;;8.48;2.88;;;7.50;99.90;;;;;;5037045;28;20827;-75
2021/12/19 05:57:37;;;;;;;7.13;2.13;;;7.50;99.90;;;;;;5040561;28;20205;-74
2021/12/19 06:00:08;;;;;;;9.02;2.40;;;7.50;99.90;;;;;;5041635;28;20205;-72
2021/12/19 06:02:36;;;;;;;9.93;3.45;;;7.50;99.90;;;;;;5042115;28;20198;-73
2021/12/19 06:05:05;;;;;;;5.78;2.35;;;7.60;99.90;;;;;;5041349;28;20221;-74
2021/12/19 06:07:33;;;;;;;9.60;2.72;;;7.60;99.90;;;;;;5042023;28;20209;-74
2021/12/19 06:10:04;;;;;;;5.43;2.15;;;7.70;99.90;;;;;;5042001;28;20224;-74
2021/12/19 06:12:33;;;;;;;13.30;2.95;;;7.70;99.90;;;;;;5041537;28;20244;-72
2021/12/19 06:15:01;;;;;;;6.25;2.20;;;7.70;99.90;;;;;;5041705;28;20232;-72
2021/12/19 06:17:29;;;;;;;6.80;2.55;;;7.70;99.90;;;;;;5042498;28;20301;-70
2021/12/19 06:19:56;;;;;;;6.45;2.65;;;7.80;99.90;;;;;;5044349;28;20206;-71
2021/12/19 06:22:24;;;;;;;7.38;2.28;;;7.80;99.90;;;;;;5042926;28;20951;-72
2021/12/19 06:24:52;;;;;;;4.00;1.83;;;7.80;99.90;;;;;;5022010;28;20244;-72
2021/12/19 06:27:21;;;;;;;5.80;2.38;;;7.80;99.90;;;;;;5022015;28;20214;-71
2021/12/19 06:29:50;;;;;;;8.50;2.17;;;7.80;99.90;;;;;;5040654;28;20752;-72
2021/12/19 06:32:18;;;;;;;4.38;2.25;;;7.80;99.90;;;;;;5041342;28;20194;-71
2021/12/19 06:34:46;;;;;;;6.15;2.10;;;7.80;99.90;;;;;;5040121;28;20417;-71
2021/12/19 06:37:14;;;;;;;8.73;2.65;;;7.80;99.90;;;;;;5040844;28;20738;-71
2021/12/19 06:39:42;;;;;;;9.00;1.90;;;7.90;99.90;;;;;;5041194;28;20193;-70
2021/12/19 06:42:10;;;;;;;5.68;2.25;;;7.90;99.90;;;;;;5038785;28;20676;-72
2021/12/19 06:44:40;;;;;;;10.52;2.85;;;7.90;99.90;;;;;;5041185;28;20190;-71
2021/12/19 06:47:08;;;;;;;10.48;2.47;;;7.80;99.90;;;;;;5042145;28;20186;-71
2021/12/19 06:49:36;;;;;;;7.88;2.90;;;7.90;99.90;;;;;;5041972;28;20202;-71
2021/12/19 06:52:04;;;;;;;3.47;1.77;;;7.90;99.90;;;;;;5041585;28;20301;-72
2021/12/19 06:54:32;;;;;;;17.30;2.75;;;7.90;99.90;;;;;;5042129;28;20824;-70
2021/12/19 06:57:00;;;;;;;7.72;2.28;;;7.90;99.90;;;;;;5041059;28;20201;-73
2021/12/19 06:59:27;;;;;;;9.43;2.30;;;7.90;99.90;;;;;;5041047;28;20304;-71
2021/12/19 07:01:57;;;;;;;6.97;2.15;;;7.90;99.90;;;;;;5041399;28;20277;-73
2021/12/19 07:04:25;;;;;;;3.28;1.33;;;7.90;99.90;;;;;;5040660;28;20243;-74
2021/12/19 07:06:53;;;;;;;6.35;1.77;;;7.80;99.90;;;;;;5041165;28;20305;-66
2021/12/19 07:09:21;;;;;;;16.95;2.80;;;7.90;99.90;;;;;;5040030;28;20207;-66
2021/12/19 07:11:49;;;;;;;4.65;2.38;;;7.90;99.90;;;;;;5040359;28;20324;-71
2021/12/19 07:14:17;;;;;;;7.30;1.58;;;7.80;99.90;;;;;;5040340;28;20236;-66
2021/12/19 07:16:45;;;;;;;8.50;2.30;;;7.90;99.90;;;;;;5040691;28;20229;-67
2021/12/19 07:19:14;;;;;;;8.45;2.33;;;7.90;99.90;;;;;;5042582;28;20219;-67
2021/12/19 07:21:41;;;;;;;7.90;2.33;;;7.90;99.90;;;;;;5042880;28;20304;-68
2021/12/19 07:24:09;;;;;;;4.57;1.50;;;7.90;99.90;;;;;;5042152;28;20194;-67
2021/12/19 07:26:37;;;;;;;4.45;1.83;;;8.00;99.90;;;;;;5039786;28;20260;-67
2021/12/19 07:29:05;;;;;;;7.90;2.25;;;8.00;99.90;;;;;;5040241;28;20284;-67
2021/12/19 07:31:36;;;;;;;13.20;3.53;;;8.00;99.90;;;;;;5042266;28;20283;-67
2021/12/19 07:34:04;;;;;;;7.47;2.58;;;8.00;99.90;;;;;;5042693;28;20202;-66
2021/12/19 07:36:40;;;;;;;8.98;2.05;;;8.00;99.90;;;;;;5041965;28;20221;-67
2021/12/19 07:39:22;;;;;;;9.77;2.92;;;8.00;99.90;;;;;;5043129;28;20209;-67
2021/12/19 07:41:50;;;;;;;4.03;2.30;;;8.00;99.90;;;;;;5044157;28;20708;-67
2021/12/19 07:44:17;;;;;;;6.45;2.25;;;8.10;99.90;;;;;;5044019;28;20384;-67
2021/12/19 07:46:45;;;;;;;6.80;1.90;;;8.00;99.90;;;;;;5043734;28;20198;-67
2021/12/19 07:49:13;;;;;;;7.50;2.10;;;8.10;99.90;;;;;;5043343;28;20732;-67
2021/12/19 07:51:43;;;;;;;4.28;2.00;;;8.10;99.90;;;;;;5040462;28;20233;-67
2021/12/19 07:54:11;;;;;;;7.05;2.70;;;8.10;99.90;;;;;;5042799;28;20596;-68
2021/12/19 07:56:39;;;;;;;7.80;2.05;;;8.10;99.90;;;;;;5043179;28;20222;-68
2021/12/19 07:59:07;;;;;;;9.57;2.67;;;8.10;99.90;;;;;;5043004;28;20200;-68
2021/12/19 08:01:35;;;;;;;8.30;2.42;;;8.10;99.90;;;;;;5041721;28;20284;-68
2021/12/19 08:04:03;;;;;;;7.00;1.50;;;8.00;99.90;;;;;;5059622;28;20205;-67
2021/12/19 08:06:32;;;;;;;9.43;1.85;;;8.00;99.90;;;;;;5051973;28;20214;-68
2021/12/19 08:09:08;;;;;;;4.85;1.88;;;8.10;99.90;;;;;;5043215;28;20240;-67
2021/12/19 08:11:43;;;;;;;8.10;2.60;;;8.10;99.90;;;;;;5043089;28;20205;-68
2021/12/19 08:14:14;;;;;;;5.55;1.63;;;8.10;99.90;;;;;;5042851;28;20266;-68
2021/12/19 08:16:44;;;;;;;9.18;1.55;;;8.10;99.90;;;;;;5041659;28;20748;-67
2021/12/19 08:19:13;;;;;;;4.97;1.77;;;8.00;99.90;;;;;;5042460;28;20224;-67
2021/12/19 08:21:41;;;;;;;6.30;1.70;;;8.10;99.90;;;;;;5040461;28;20194;-67
2021/12/19 08:24:12;;;;;;;7.05;2.28;;;8.00;99.90;;;;;;5041118;28;20292;-66
2021/12/19 08:26:42;;;;;;;6.57;1.90;;;8.00;99.90;;;;;;5042590;28;20768;-66
2021/12/19 08:29:11;;;;;;;11.98;3.35;;;8.10;99.90;;;;;;5041886;28;20259;-67
2021/12/19 08:31:40;;;;;;;9.55;2.90;;;8.10;99.90;;;;;;5041153;28;20496;-66
2021/12/19 08:34:08;;;;;;;16.60;2.42;;;8.10;99.90;;;;;;5039782;28;20221;-66
2021/12/19 08:36:37;;;;;;;6.40;1.60;;;8.10;99.90;;;;;;5039473;28;20253;-67
2021/12/19 08:39:05;;;;;;;5.85;2.20;;;8.10;99.90;;;;;;5040816;28;20202;-66
2021/12/19 08:41:40;;;;;;;7.45;2.40;;;8.10;99.90;;;;;;5041421;28;20302;-68
2021/12/19 08:44:08;;;;;;;10.75;2.00;;;8.10;99.90;;;;;;5041312;28;20205;-68
2021/12/19 08:46:38;;;;;;;5.43;1.70;;;8.10;99.90;;;;;;5041441;28;20742;-68
2021/12/19 08:49:07;;;;;;;6.50;1.77;;;8.10;99.90;;;;;;5041810;28;20198;-66
2021/12/19 08:51:35;;;;;;;6.35;1.98;;;8.10;99.90;;;;;;5040162;28;20202;-68
2021/12/19 08:54:04;;;;;;;8.30;2.80;;;8.10;99.90;;;;;;5038754;28;20320;-68
2021/12/19 08:56:32;;;;;;;7.82;2.00;;;8.10;99.90;;;;;;5039595;28;20229;-68
2021/12/19 08:59:01;;;;;;;12.65;1.70;;;8.20;99.90;;;;;;5038883;28;20205;-65
2021/12/19 09:01:31;;;;;;;6.10;2.15;;;8.20;99.90;;;;;;5039188;28;20208;-67
2021/12/19 09:03:59;;;;;;;6.63;1.88;;;8.30;99.90;;;;;;5038639;28;20213;-67
2021/12/19 09:06:27;;;;;;;6.90;1.63;;;8.30;99.90;;;;;;5037781;28;20991;-66
2021/12/19 09:08:55;;;;;;;6.55;1.80;;;8.40;99.90;;;;;;5038670;28;20209;-66
2021/12/19 09:11:23;;;;;;;9.23;2.13;;;8.40;99.90;;;;;;5038200;28;20221;-68
2021/12/19 09:13:51;;;;;;;11.88;2.20;;;8.40;99.90;;;;;;5040371;28;20194;-67
2021/12/19 09:16:20;;;;;;;6.30;1.80;;;8.40;99.90;;;;;;5037212;28;20225;-65
2021/12/19 09:19:09;;;;;;;13.07;2.45;;;8.40;99.90;;;;;;5037881;28;20202;-67
2021/12/19 09:21:37;;;;;;;6.45;1.67;;;8.40;99.90;;;;;;5037289;28;20194;-67
2021/12/19 09:24:05;;;;;;;13.43;2.40;;;8.50;99.90;;;;;;5038543;28;20205;-68
2021/12/19 09:26:33;;;;;;;5.80;2.58;;;8.40;99.90;;;;;;5038946;28;20595;-68
2021/12/19 09:29:01;;;;;;;19.02;4.80;;;8.40;99.90;;;;;;5039952;28;20700;-67
2021/12/19 09:31:31;;;;;;;5.30;2.00;;;8.50;99.90;;;;;;5039829;28;20194;-65
2021/12/19 09:33:58;;;;;;;7.50;1.85;;;8.60;99.90;;;;;;5040235;28;20198;-68
2021/12/19 09:36:27;;;;;;;10.85;3.30;;;8.60;99.90;;;;;;5038830;28;20231;-67
2021/12/19 09:38:55;;;;;;;6.97;2.33;;;8.70;99.90;;;;;;5045138;28;20189;-68
2021/12/19 09:41:28;;;;;;;19.63;3.33;;;8.80;99.90;;;;;;5036322;28;20281;-67
2021/12/19 09:44:02;;;;;;;4.75;2.00;;;8.70;99.90;;;;;;5046686;28;20205;-68
2021/12/19 09:46:35;;;;;;;9.48;2.53;;;8.70;99.90;;;;;;5046177;28;20213;-68
2021/12/19 09:49:05;;;;;;;11.95;2.53;;;8.70;99.90;;;;;;5041131;28;20225;-69
2021/12/19 09:51:33;;;;;;;8.38;2.20;;;8.70;99.90;;;;;;5042674;28;20204;-68
2021/12/19 09:54:01;;;;;;;11.95;2.45;;;8.70;99.90;;;;;;5039758;28;20222;-67
2021/12/19 09:56:33;;;;;;;5.20;2.15;;;8.60;99.90;;;;;;5044843;28;20232;-68
2021/12/19 09:59:01;;;;;;;12.55;2.72;;;8.60;99.90;;;;;;5037476;28;20281;-67
2021/12/19 10:01:31;;;;;;;8.88;1.83;;;8.70;99.90;;;;;;5037527;28;20197;-67
2021/12/19 10:03:59;;;;;;;6.93;2.20;;;8.70;99.90;;;;;;5046149;28;20806;-67
2021/12/19 10:06:30;;;;;;;5.60;1.65;;;8.70;99.90;;;;;;5038985;28;20344;-68
2021/12/19 10:09:13;;;;;;;7.57;3.05;;;8.70;99.90;;;;;;5037554;28;20388;-68
2021/12/19 10:11:54;;;;;;;10.73;2.65;;;8.80;99.90;;;;;;5034694;28;20204;-67
2021/12/19 10:14:27;;;;;;;15.15;3.42;;;8.80;99.90;;;;;;5037341;28;20192;-68
2021/12/19 10:16:59;;;;;;;7.97;2.38;;;8.80;99.90;;;;;;5037679;28;20249;-67
2021/12/19 10:19:44;;;;;;;4.25;1.70;;;8.80;99.90;;;;;;5046291;28;20198;-68
2021/12/19 10:22:30;;;;;;;8.20;2.28;;;8.90;99.90;;;;;;5042401;28;20193;-68
2021/12/19 10:24:59;;;;;;;7.53;2.28;;;8.90;99.90;;;;;;5041808;28;20214;-68
2021/12/19 10:27:32;;;;;;;5.00;2.33;;;8.90;99.90;;;;;;5040662;28;20263;-67
2021/12/19 10:30:00;;;;;;;7.75;1.90;;;8.90;99.90;;;;;;5038355;28;20297;-66
2021/12/19 10:32:29;;;;;;;7.53;3.00;;;8.90;99.90;;;;;;5039690;28;20194;-69
2021/12/19 10:35:17;;;;;;;3.15;1.52;;;8.90;99.90;;;;;;5046411;28;20275;-67
2021/12/19 10:37:45;;;;;;;13.52;3.03;;;8.90;99.90;;;;;;5050291;28;20316;-67
2021/12/19 10:40:14;;;;;;;12.27;2.35;;;8.90;99.90;;;;;;5057436;28;20556;-68
2021/12/19 10:42:48;;;;;;;10.70;2.00;;;8.90;99.90;;;;;;5042051;28;20345;-66
2021/12/19 10:45:32;;;;;;;8.25;2.15;;;9.00;99.90;;;;;;5041915;28;20248;-67
2021/12/19 10:48:17;;;;;;;6.10;1.88;;;9.00;99.90;;;;;;5047161;28;20208;-70
2021/12/19 10:50:48;;;;;;;14.88;3.25;;;9.00;99.90;;;;;;5043541;28;20194;-69
2021/12/19 10:53:17;;;;;;;10.85;3.15;;;8.90;99.90;;;;;;5046276;28;20225;-67
2021/12/19 10:55:46;;;;;;;6.22;3.80;;;8.90;99.90;;;;;;5049749;28;20882;-67
2021/12/19 10:58:29;;;;;;;13.02;2.50;;;9.00;99.90;;;;;;5041121;28;20221;-67
2021/12/19 11:01:04;;;;;;;4.80;2.13;;;9.00;99.90;;;;;;5050030;28;20232;-67
2021/12/19 11:03:44;;;;;;;7.57;2.10;;;9.00;99.90;;;;;;5048600;28;20259;-68
2021/12/19 11:06:22;;;;;;;3.53;1.77;;;9.00;99.90;;;;;;5041078;28;20848;-69
2021/12/19 11:08:51;;;;;;;7.95;2.25;;;9.00;99.90;;;;;;5041042;28;20197;-69
2021/12/19 11:11:40;;;;;;;7.95;2.58;;;9.10;99.90;;;;;;5040894;28;20773;-67
2021/12/19 11:14:09;;;;;;;9.50;2.22;;;9.10;99.90;;;;;;5041102;28;20791;-67
2021/12/19 11:16:37;;;;;;;5.57;2.10;;;9.10;99.90;;;;;;5041081;28;20837;-67
2021/12/19 11:19:06;;;;;;;11.10;2.95;;;9.10;99.90;;;;;;5041462;28;20201;-67
2021/12/19 11:21:35;;;;;;;8.07;1.85;;;9.10;99.90;;;;;;5041435;28;20198;-67
2021/12/19 11:24:06;;;;;;;10.02;2.90;;;9.10;99.90;;;;;;5041652;28;20206;-70
2021/12/19 11:26:35;;;;;;;10.70;2.58;;;9.00;99.90;;;;;;5041565;28;20221;-71
2021/12/19 11:29:03;;;;;;;9.77;1.92;;;9.10;99.90;;;;;;5041649;28;20292;-70
2021/12/19 11:31:32;;;;;;;11.35;2.60;;;9.00;99.90;;;;;;5040915;28;20197;-68
2021/12/19 11:34:29;;;;;;;9.20;2.30;;;9.10;99.90;;;;;;5048854;28;20682;-68
2021/12/19 11:37:01;;;;;;;13.68;2.58;;;9.00;99.90;;;;;;5042406;28;20247;-69
2021/12/19 11:39:32;;;;;;;12.48;3.05;;;9.00;99.90;;;;;;5048902;28;20648;-70
2021/12/19 11:42:10;;;;;;;9.93;1.90;;;9.00;99.90;;;;;;5044584;28;20190;-70
2021/12/19 11:44:47;;;;;;;5.57;1.98;;;9.00;99.90;;;;;;5043264;28;20197;-69
2021/12/19 11:47:44;;;;;;;8.73;2.40;;;9.00;99.90;;;;;;5042841;28;20193;-70
2021/12/19 11:50:21;;;;;;;9.13;2.08;;;9.10;99.90;;;;;;5039598;28;20300;-70
2021/12/19 11:52:51;;;;;;;11.23;3.85;;;9.10;99.90;;;;;;5039642;28;20232;-70
2021/12/19 11:55:25;;;;;;;9.88;2.30;;;9.10;99.90;;;;;;5038727;28;20296;-70
2021/12/19 11:58:15;;;;;;;9.23;2.33;;;9.10;99.90;;;;;;5039549;28;20304;-70
2021/12/19 12:00:47;;;;;;;7.85;2.03;;;9.10;99.90;;;;;;5039383;28;20201;-69
2021/12/19 12:03:25;;;;;;;8.55;2.60;;;9.20;99.90;;;;;;5040172;28;20197;-69
2021/12/19 12:06:25;;;;;;;9.20;2.08;;;9.30;99.90;;;;;;5039663;28;20229;-70
2021/12/19 12:09:22;;;;;;;7.03;1.50;;;9.30;99.90;;;;;;5039630;28;20190;-70
2021/12/19 12:12:13;;;;;;;8.07;2.55;;;9.30;99.90;;;;;;5039908;28;20337;-70
2021/12/19 12:14:43;;;;;;;10.48;3.10;;;9.30;99.90;;;;;;5038909;28;20265;-70
2021/12/19 12:17:15;;;;;;;5.75;2.75;;;9.20;99.90;;;;;;5039818;28;20784;-70
2021/12/19 12:19:45;;;;;;;8.25;2.22;;;9.30;99.90;;;;;;5040634;28;20204;-68
2021/12/19 12:22:34;;;;;;;12.13;3.35;;;9.40;99.90;;;;;;5048867;28;20209;-70
2021/12/19 12:25:16;;;;;;;12.55;2.97;;;9.30;99.90;;;;;;5048381;28;20769;-70
2021/12/19 12:27:48;;;;;;;4.95;1.67;;;9.30;99.90;;;;;;5039687;28;20219;-70
2021/12/19 12:30:19;;;;;;;7.68;1.77;;;9.30;99.90;;;;;;5039291;28;20251;-70
2021/12/19 12:32:47;;;;;;;2.30;2.10;;;9.30;99.90;;;;;;5040357;28;20205;-68
2021/12/19 12:35:17;;;;;;;14.00;1.88;;;9.40;99.90;;;;;;5039031;28;20884;-70
2021/12/19 12:37:48;;;;;;;6.93;1.60;;;9.30;99.90;;;;;;5039709;28;20308;-70
2021/12/19 12:40:26;;;;;;;8.73;1.77;;;9.30;99.90;;;;;;5038952;28;20830;-70
2021/12/19 12:43:15;;;;;;;9.60;2.05;;;9.20;99.90;;;;;;5039043;28;20289;-70
2021/12/19 12:46:03;;;;;;;8.57;2.20;;;9.20;99.90;;;;;;5035927;28;20241;-70
2021/12/19 12:48:49;;;;;;;6.97;1.80;;;9.30;99.90;;;;;;5039999;28;20201;-70
2021/12/19 12:51:24;;;;;;;6.43;1.83;;;9.30;99.90;;;;;;5039396;28;20229;-70
2021/12/19 12:53:55;;;;;;;8.80;2.10;;;9.30;99.90;;;;;;5038453;28;20316;-70
2021/12/19 12:56:27;;;;;;;6.05;1.60;;;9.20;99.90;;;;;;5038914;28;20218;-70
2021/12/19 12:58:56;;;;;;;7.18;2.20;;;9.30;99.90;;;;;;5038926;28;20229;-70
2021/12/19 13:01:35;;;;;;;7.80;2.17;;;9.20;99.90;;;;;;5038615;28;20201;-70
2021/12/19 13:04:07;;;;;;;7.00;2.03;;;9.20;99.90;;;;;;5039133;28;20216;-69
2021/12/19 13:06:55;;;;;;;10.77;1.83;;;9.20;99.90;;;;;;5038295;28;20228;-69
2021/12/19 13:09:30;;;;;;;9.55;2.03;;;9.20;99.90;;;;;;5039498;28;20267;-70
2021/12/19 13:12:08;;;;;;;6.43;1.75;;;9.20;99.90;;;;;;5042839;28;20208;-70
2021/12/19 13:14:38;;;;;;;15.57;2.42;;;9.20;99.90;;;;;;5051224;28;20213;-70
2021/12/19 13:17:08;;;;;;;10.05;1.90;;;9.20;99.90;;;;;;5047193;28;20233;-69
2021/12/19 13:19:43;;;;;;;9.85;2.28;;;9.20;99.90;;;;;;5039180;28;20232;-70
2021/12/19 13:22:13;;;;;;;5.30;1.63;;;9.20;99.90;;;;;;5038933;28;20209;-70
2021/12/19 13:24:43;;;;;;;14.10;2.20;;;9.10;99.90;;;;;;5038721;28;20221;-70
2021/12/19 13:27:15;;;;;;;10.05;3.35;;;9.20;99.90;;;;;;5039924;28;20208;-70
2021/12/19 13:29:56;;;;;;;10.80;2.55;;;9.20;99.90;;;;;;5039938;28;20293;-70
2021/12/19 13:32:27;;;;;;;6.07;2.03;;;9.10;99.90;;;;;;5038782;28;20206;-70
2021/12/19 13:34:56;;;;;;;4.40;1.60;;;9.10;99.90;;;;;;5037822;28;20256;-70
2021/12/19 13:37:25;;;;;;;7.20;2.20;;;9.10;99.90;;;;;;5037965;28;20205;-70
2021/12/19 13:40:09;;;;;;;6.13;2.10;;;9.10;99.90;;;;;;5038018;28;20251;-69
2021/12/19 13:42:39;;;;;;;9.85;2.33;;;9.00;99.90;;;;;;5038608;28;20227;-70
2021/12/19 13:45:42;;;;;;;10.60;2.53;;;8.90;99.90;;;;;;5037833;28;20231;-69
2021/12/19 13:48:15;;;;;;;9.05;2.30;;;8.70;99.90;;;;;;5038039;28;20823;-70
2021/12/19 13:50:46;;;;;;;8.68;2.50;;;8.70;99.90;;;;;;5038359;28;20236;-69
2021/12/19 13:53:15;;;;;;;8.77;1.52;;;8.70;99.90;;;;;;5037836;28;20213;-69
2021/12/19 13:55:48;;;;;;;4.68;2.17;;;8.60;99.90;;;;;;5037599;28;20391;-69
2021/12/19 13:58:17;;;;;;;5.50;1.83;;;8.60;99.90;;;;;;5038059;28;20204;-69